Time;durP1;ratioP1;P1;durP2;ratioP2;P2;SDS_P1;SDS_P2;PMS_P1;PMS_P2;Temp;Humidity;BMP_temperature;BMP_pressure;BME280_temperature;BME280_humidity;BME280_pressure;Samples;Min_cycle;Max_cycle;Signal;HPM_P1;HPM_P2
2021/07/14 00:01:14;;;;;;;11.73;10.82;;;;;;;23.58;100.00;100114.00;4959333;28;20713;-75
2021/07/14 00:03:42;;;;;;;11.73;10.80;;;;;;;23.57;100.00;100114.38;4972456;28;20193;-76
2021/07/14 00:06:08;;;;;;;11.60;10.60;;;;;;;23.40;100.00;100116.81;4994846;28;20221;-74
2021/07/14 00:08:33;;;;;;;12.00;11.00;;;;;;;23.36;100.00;100115.97;4994626;28;20216;-76
2021/07/14 00:10:59;;;;;;;11.80;10.80;;;;;;;23.44;100.00;100110.19;4973850;28;20275;-75
2021/07/14 00:13:46;;;;;;;11.13;10.23;;;;;;;23.24;100.00;100105.03;4943163;28;20190;-75
2021/07/14 00:22:09;;;;;;;11.90;10.88;;;;;;;23.32;100.00;100104.00;4945029;28;20226;-74
2021/07/14 00:24:37;;;;;;;11.93;11.02;;;;;;;23.24;100.00;100091.16;4977936;28;20188;-76
2021/07/14 00:27:05;;;;;;;12.73;11.68;;;;;;;23.13;100.00;100095.75;4978454;28;20626;-76
2021/07/14 00:29:47;;;;;;;13.05;12.05;;;;;;;23.13;100.00;100090.22;4959048;28;20261;-76
2021/07/14 00:32:13;;;;;;;12.90;11.80;;;;;;;22.84;100.00;100081.69;4962077;28;20252;-76
2021/07/14 00:34:38;;;;;;;13.55;12.25;;;;;;;22.87;100.00;100081.78;4977944;28;20643;-74
2021/07/14 00:37:04;;;;;;;13.00;12.00;;;;;;;22.81;100.00;100083.22;4977731;28;20722;-74
2021/07/14 00:39:34;;;;;;;13.27;12.20;;;;;;;22.93;100.00;100085.03;4975251;28;20570;-75
2021/07/14 00:42:00;;;;;;;13.38;12.27;;;;;;;22.86;100.00;100074.63;4967556;28;20224;-75
2021/07/14 00:44:30;;;;;;;14.02;12.73;;;;;;;22.75;100.00;100072.03;4943082;28;20185;-74
2021/07/14 00:47:01;;;;;;;13.93;12.70;;;;;;;22.80;100.00;100069.72;4974584;28;20221;-75
2021/07/14 00:49:29;;;;;;;12.85;11.70;;;;;;;22.94;100.00;100070.03;4968656;28;20193;-75
2021/07/14 00:51:57;;;;;;;13.70;12.50;;;;;;;22.95;100.00;100083.53;4958869;28;20634;-75
2021/07/14 00:54:23;;;;;;;12.70;11.60;;;;;;;23.00;100.00;100077.69;4962001;28;20670;-75
2021/07/14 00:56:48;;;;;;;13.60;12.43;;;;;;;22.73;100.00;100074.31;4961194;28;20228;-75
2021/07/14 00:59:14;;;;;;;12.60;11.60;;;;;;;22.53;100.00;100059.69;4963973;28;20612;-75
2021/07/14 01:01:42;;;;;;;13.52;12.43;;;;;;;22.42;100.00;100068.97;4938645;28;20225;-76
2021/07/14 01:04:21;;;;;;;14.63;13.23;;;;;;;22.43;100.00;100065.00;4941342;28;20275;-74
2021/07/14 01:07:02;;;;;;;14.73;13.35;;;;;;;22.36;100.00;100066.84;4962242;28;20235;-74
2021/07/14 01:09:35;;;;;;;13.95;12.63;;;;;;;22.34;100.00;100061.66;4979300;28;20194;-74
2021/07/14 01:12:09;;;;;;;13.75;12.65;;;;;;;22.51;100.00;100066.78;4968254;28;20209;-74
2021/07/14 01:14:56;;;;;;;13.07;11.98;;;;;;;22.70;100.00;100064.00;4972822;28;20872;-74
2021/07/14 01:17:25;;;;;;;13.63;12.43;;;;;;;22.76;100.00;100068.84;4954980;28;20228;-75
2021/07/14 01:20:15;;;;;;;12.75;11.38;;;;;;;22.78;100.00;100067.34;4954996;28;20567;-75
2021/07/14 01:22:48;;;;;;;13.35;12.15;;;;;;;22.71;100.00;100063.63;4971186;28;20276;-75
2021/07/14 01:25:25;;;;;;;12.60;11.60;;;;;;;22.81;100.00;100069.34;4953595;28;20185;-75
2021/07/14 01:27:50;;;;;;;13.23;12.02;;;;;;;22.69;100.00;100067.91;4978082;28;20184;-75
2021/07/14 01:30:16;;;;;;;13.35;12.10;;;;;;;22.61;100.00;100072.50;4958820;28;20237;-75
2021/07/14 01:32:44;;;;;;;13.35;12.27;;;;;;;22.67;100.00;100070.25;4972568;28;20570;-75
2021/07/14 01:35:25;;;;;;;14.02;12.65;;;;;;;22.73;100.00;100066.00;4948725;28;20196;-75
2021/07/14 01:37:53;;;;;;;12.60;11.57;;;;;;;22.62;100.00;100060.28;4962606;28;20687;-75
2021/07/14 01:40:19;;;;;;;12.70;11.60;;;;;;;22.53;100.00;100065.25;4957601;28;20190;-76
2021/07/14 01:42:45;;;;;;;12.98;11.85;;;;;;;22.48;100.00;100062.75;4945397;28;20224;-75
2021/07/14 01:45:16;;;;;;;14.45;13.25;;;;;;;22.62;100.00;100051.97;4957169;28;20224;-75
2021/07/14 01:47:41;;;;;;;14.23;12.88;;;;;;;22.60;100.00;100053.50;4981782;28;20189;-75
2021/07/14 01:50:09;;;;;;;12.70;11.48;;;;;;;22.70;100.00;100064.78;4960948;28;20186;-75
2021/07/14 01:52:35;;;;;;;13.40;12.30;;;;;;;22.73;100.00;100053.00;4961743;28;20185;-75
2021/07/14 01:55:04;;;;;;;13.32;11.98;;;;;;;22.71;100.00;100049.78;4971175;28;20235;-74
2021/07/14 01:57:31;;;;;;;12.55;11.55;;;;;;;22.76;100.00;100045.91;4964440;28;20235;-75
2021/07/14 02:00:00;;;;;;;13.02;11.82;;;;;;;22.76;100.00;100041.16;4969385;28;20233;-76
2021/07/14 02:02:33;;;;;;;13.07;11.63;;;;;;;22.79;100.00;100052.31;4927226;28;20237;-75
2021/07/14 02:04:58;;;;;;;12.85;11.75;;;;;;;22.87;100.00;100044.94;4928118;28;20195;-75
2021/07/14 02:07:27;;;;;;;12.32;11.23;;;;;;;22.80;100.00;100042.00;4974231;28;20222;-75
2021/07/14 02:09:56;;;;;;;11.95;10.98;;;;;;;22.79;100.00;100037.66;4940216;28;20275;-76
2021/07/14 02:12:26;;;;;;;12.98;11.88;;;;;;;22.89;100.00;100046.22;4964717;28;20252;-75
2021/07/14 02:14:54;;;;;;;13.07;11.80;;;;;;;22.84;100.00;100035.38;4945621;28;20273;-75
2021/07/14 02:17:25;;;;;;;13.25;12.05;;;;;;;22.48;100.00;100034.28;4961377;28;20229;-75
2021/07/14 02:20:11;;;;;;;13.18;12.07;;;;;;;22.58;100.00;100036.44;4982084;28;20177;-75
2021/07/14 02:22:38;;;;;;;13.02;12.00;;;;;;;22.54;100.00;100030.03;4980817;28;20213;-75
2021/07/14 02:25:05;;;;;;;13.77;12.65;;;;;;;22.47;100.00;100039.03;4964794;28;20351;-74
2021/07/14 02:27:31;;;;;;;14.45;13.00;;;;;;;22.31;100.00;100033.94;4932718;28;20222;-74
2021/07/14 02:29:56;;;;;;;13.80;12.57;;;;;;;22.23;100.00;100038.50;4925497;28;20674;-75
2021/07/14 02:32:25;;;;;;;13.65;12.45;;;;;;;22.29;100.00;100028.75;4926357;28;20365;-74
2021/07/14 02:34:54;;;;;;;14.20;12.90;;;;;;;22.24;100.00;100023.50;4947150;28;20181;-75
2021/07/14 02:37:26;;;;;;;14.23;13.13;;;;;;;22.10;100.00;100020.38;4980530;28;20316;-75
2021/07/14 02:39:54;;;;;;;13.80;12.70;;;;;;;22.27;100.00;100017.25;5011380;28;20177;-75
2021/07/14 02:42:27;;;;;;;13.93;12.65;;;;;;;22.14;100.00;100015.75;4976571;28;20606;-75
2021/07/14 02:44:53;;;;;;;15.05;13.65;;;;;;;22.20;100.00;100002.47;4970286;28;20694;-75
2021/07/14 02:47:19;;;;;;;15.70;14.30;;;;;;;22.27;100.00;100005.34;4960602;28;20228;-75
2021/07/14 02:49:46;;;;;;;15.55;14.25;;;;;;;22.13;100.00;100007.81;4960302;28;20186;-75
2021/07/14 02:52:17;;;;;;;16.52;15.02;;;;;;;21.97;100.00;100011.81;4956883;28;20277;-75
2021/07/14 02:54:43;;;;;;;17.25;15.48;;;;;;;22.03;100.00;100000.91;4941515;28;20193;-75
2021/07/14 02:57:11;;;;;;;17.55;15.95;;;;;;;22.01;100.00;100002.41;4941030;28;20218;-75
2021/07/14 02:59:38;;;;;;;17.67;16.17;;;;;;;22.08;100.00;99997.81;4925645;28;20559;-75
2021/07/14 03:02:08;;;;;;;16.88;15.38;;;;;;;22.13;100.00;100000.31;4941797;28;20738;-76
2021/07/14 03:04:38;;;;;;;17.50;16.00;;;;;;;21.87;100.00;100004.09;4941658;28;20213;-75
2021/07/14 03:07:07;;;;;;;17.15;15.65;;;;;;;21.89;100.00;99994.25;4957477;28;20740;-75
2021/07/14 03:09:42;;;;;;;18.15;16.52;;;;;;;21.84;100.00;100013.09;4981438;28;20181;-75
2021/07/14 03:12:12;;;;;;;17.70;16.20;;;;;;;21.73;100.00;100012.06;4949922;28;20226;-76
2021/07/14 03:14:46;;;;;;;17.52;15.93;;;;;;;21.81;100.00;100011.03;4956781;28;20668;-74
2021/07/14 03:17:18;;;;;;;17.02;15.48;;;;;;;21.81;100.00;100008.28;4956897;28;20238;-75
2021/07/14 03:19:46;;;;;;;18.02;16.23;;;;;;;21.77;100.00;100015.69;4980531;28;20180;-73
2021/07/14 03:22:14;;;;;;;17.75;16.00;;;;;;;21.86;100.00;100016.31;4979238;28;20315;-76
2021/07/14 03:24:41;;;;;;;18.08;16.33;;;;;;;21.72;100.00;100015.97;4969068;28;20198;-76
2021/07/14 03:27:09;;;;;;;18.23;16.63;;;;;;;21.72;100.00;100029.78;4952363;28;20222;-77
2021/07/14 03:29:36;;;;;;;17.50;15.90;;;;;;;21.89;100.00;100037.72;4959618;28;20769;-76
2021/07/14 03:32:06;;;;;;;17.45;15.95;;;;;;;22.00;100.00;100033.22;4951678;28;20213;-76
2021/07/14 03:34:32;;;;;;;17.58;16.02;;;;;;;22.03;100.00;100059.00;4960827;28;20186;-77
2021/07/14 03:37:03;;;;;;;16.92;15.43;;;;;;;22.07;100.00;100051.56;4959309;28;20225;-76
2021/07/14 03:39:30;;;;;;;16.90;15.30;;;;;;;21.95;100.00;100047.34;4959918;28;20268;-75
2021/07/14 03:41:58;;;;;;;16.88;15.38;;;;;;;22.05;100.00;100058.59;4965924;28;20232;-76
2021/07/14 03:44:26;;;;;;;16.52;15.13;;;;;;;21.90;100.00;100053.13;4973771;28;20637;-76
2021/07/14 03:46:52;;;;;;;17.20;15.70;;;;;;;21.95;100.00;100055.63;4968308;28;20226;-76
2021/07/14 03:49:17;;;;;;;17.08;15.68;;;;;;;21.90;100.00;100056.69;4962812;28;20658;-76
2021/07/14 03:51:44;;;;;;;17.08;15.48;;;;;;;21.87;100.00;100053.88;4955809;28;20228;-76
2021/07/14 03:54:13;;;;;;;17.23;15.52;;;;;;;21.79;100.00;100060.38;4954402;28;20209;-76
2021/07/14 03:56:42;;;;;;;16.20;14.82;;;;;;;21.63;100.00;100060.44;4964368;28;20214;-77
2021/07/14 03:59:08;;;;;;;16.80;15.30;;;;;;;21.73;100.00;100061.84;4978446;28;20562;-77
2021/07/14 04:01:36;;;;;;;17.10;15.48;;;;;;;21.80;100.00;100064.78;4995194;28;20225;-78
2021/07/14 04:04:02;;;;;;;17.27;15.45;;;;;;;21.93;100.00;100060.72;4964026;28;20201;-78
2021/07/14 04:06:34;;;;;;;16.42;15.13;;;;;;;21.91;100.00;100063.06;4944561;28;20595;-77
2021/07/14 04:09:24;;;;;;;16.50;15.05;;;;;;;21.94;100.00;100067.84;4959758;28;20229;-78
2021/07/14 04:11:59;;;;;;;16.13;14.73;;;;;;;21.98;100.00;100068.72;4960486;28;20233;-77
2021/07/14 04:14:29;;;;;;;15.73;14.27;;;;;;;22.05;100.00;100064.97;4980955;28;20189;-76
2021/07/14 04:16:59;;;;;;;16.45;14.95;;;;;;;21.92;100.00;100056.34;4957007;28;20233;-81
2021/07/14 04:19:25;;;;;;;14.52;13.20;;;;;;;21.95;100.00;100070.25;4931945;28;20210;-80
2021/07/14 04:21:51;;;;;;;14.88;13.68;;;;;;;21.99;100.00;100073.09;4965417;28;20267;-78
2021/07/14 04:24:16;;;;;;;15.15;13.57;;;;;;;21.87;100.00;100062.97;4978852;28;20178;-78
2021/07/14 04:26:44;;;;;;;14.52;13.25;;;;;;;21.86;100.00;100066.88;4932531;28;20220;-79
2021/07/14 04:29:10;;;;;;;14.98;13.57;;;;;;;21.93;100.00;100055.19;4996932;28;20184;-80
2021/07/14 04:31:40;;;;;;;14.02;12.73;;;;;;;21.95;100.00;100055.63;4978201;28;20247;-78
2021/07/14 04:34:08;;;;;;;14.65;13.30;;;;;;;22.01;100.00;100064.09;4975377;28;20229;-77
2021/07/14 04:36:37;;;;;;;14.45;13.15;;;;;;;21.97;100.00;100061.59;4960129;28;20283;-77
2021/07/14 04:39:06;;;;;;;14.35;13.13;;;;;;;22.00;100.00;100073.53;4961793;28;20195;-78
2021/07/14 04:41:34;;;;;;;14.27;13.02;;;;;;;22.01;100.00;100075.16;4951200;28;20226;-78
2021/07/14 04:44:02;;;;;;;13.15;11.95;;;;;;;21.85;100.00;100078.31;4993093;28;20197;-78
2021/07/14 04:46:29;;;;;;;14.20;12.90;;;;;;;22.10;100.00;100081.28;4973202;28;20210;-79
2021/07/14 04:48:54;;;;;;;13.25;12.15;;;;;;;22.05;100.00;100080.75;4986579;28;20267;-78
2021/07/14 04:51:20;;;;;;;14.50;13.10;;;;;;;22.11;100.00;100082.88;4962650;28;20226;-79
2021/07/14 04:53:46;;;;;;;13.23;12.02;;;;;;;22.21;100.00;100089.84;4996182;28;20193;-78
2021/07/14 04:56:16;;;;;;;13.40;12.30;;;;;;;22.25;100.00;100082.41;4963538;28;20224;-78
2021/07/14 04:58:44;;;;;;;13.10;12.00;;;;;;;22.24;100.00;100083.59;4962486;28;20204;-78
2021/07/14 05:01:14;;;;;;;13.27;12.07;;;;;;;22.23;100.00;100081.97;4940214;28;21016;-77
2021/07/14 05:03:47;;;;;;;12.68;11.57;;;;;;;22.10;100.00;100080.47;4979443;28;20211;-78
2021/07/14 05:06:16;;;;;;;12.55;11.43;;;;;;;22.10;100.00;100084.03;4967090;28;20224;-79
2021/07/14 05:08:44;;;;;;;13.77;12.60;;;;;;;22.17;100.00;100081.47;4968152;28;20194;-79
2021/07/14 05:11:10;;;;;;;13.93;12.63;;;;;;;22.13;100.00;100083.31;4933216;28;20205;-78
2021/07/14 05:13:38;;;;;;;14.32;13.02;;;;;;;21.95;100.00;100097.13;4946188;28;20189;-78
2021/07/14 05:16:04;;;;;;;14.68;13.15;;;;;;;21.84;100.00;100093.31;4974958;28;20650;-78
2021/07/14 05:18:33;;;;;;;14.55;13.25;;;;;;;21.84;100.00;100090.53;4978576;28;20189;-77
2021/07/14 05:20:59;;;;;;;15.57;13.68;;;;;;;21.81;100.00;100077.41;4978596;28;20287;-77
2021/07/14 05:23:27;;;;;;;16.73;14.90;;;;;;;21.68;100.00;100082.28;4972288;28;20713;-77
2021/07/14 05:25:53;;;;;;;14.63;13.32;;;;;;;21.44;100.00;100078.91;4997137;28;20255;-78
2021/07/14 05:28:19;;;;;;;15.93;14.55;;;;;;;21.54;100.00;100081.13;4974451;28;20272;-80
2021/07/14 05:30:47;;;;;;;17.13;15.35;;;;;;;21.54;100.00;100083.91;4964279;28;20223;-81
2021/07/14 05:33:19;;;;;;;16.20;14.63;;;;;;;21.68;100.00;100073.16;4945221;28;20527;-78
2021/07/14 05:35:45;;;;;;;15.13;13.63;;;;;;;21.70;100.00;100068.91;4994163;28;20221;-79
2021/07/14 05:38:22;;;;;;;15.30;13.88;;;;;;;21.82;100.00;100063.25;4969677;28;20194;-78
2021/07/14 05:40:52;;;;;;;15.73;14.25;;;;;;;21.79;100.00;100044.59;4954190;28;20221;-79
2021/07/14 05:43:21;;;;;;;17.67;15.48;;;;;;;21.66;100.00;100059.69;4974674;28;20196;-79
2021/07/14 05:45:47;;;;;;;15.77;14.27;;;;;;;21.82;100.00;100046.66;4965687;28;20245;-79
2021/07/14 05:48:16;;;;;;;15.40;13.95;;;;;;;21.78;100.00;100036.69;4941768;28;20264;-79
2021/07/14 05:50:42;;;;;;;15.65;13.95;;;;;;;21.76;100.00;100044.53;4970826;28;20221;-82
2021/07/14 05:53:11;;;;;;;15.88;14.38;;;;;;;21.98;100.00;100052.13;4980926;28;20189;-82
2021/07/14 05:55:39;;;;;;;16.35;14.65;;;;;;;21.95;100.00;100050.09;4984441;28;20221;-81
2021/07/14 05:58:04;;;;;;;15.95;14.25;;;;;;;21.63;100.00;100048.56;4967132;28;20249;-80
2021/07/14 06:00:30;;;;;;;16.35;14.63;;;;;;;21.52;100.00;100044.75;4966946;28;20236;-80
2021/07/14 06:02:58;;;;;;;15.10;13.38;;;;;;;21.76;100.00;100045.31;4967993;28;20236;-81
2021/07/14 06:05:26;;;;;;;17.38;15.35;;;;;;;21.86;100.00;100043.97;4964410;28;20190;-78
2021/07/14 06:07:52;;;;;;;17.95;16.17;;;;;;;21.80;100.00;100039.88;4947159;28;20735;-80
2021/07/14 06:10:20;;;;;;;17.02;15.32;;;;;;;21.62;100.00;100038.66;5016376;28;20185;-78
2021/07/14 06:12:46;;;;;;;19.25;16.80;;;;;;;21.38;100.00;100044.38;4969357;28;20186;-80
2021/07/14 06:15:16;;;;;;;19.55;17.70;;;;;;;21.51;100.00;100043.13;4967272;28;20193;-80
2021/07/14 06:17:51;;;;;;;18.98;16.98;;;;;;;21.32;100.00;100039.47;4967354;28;20182;-80
2021/07/14 06:20:17;;;;;;;18.35;16.33;;;;;;;21.36;100.00;100030.09;4985346;28;20193;-82
2021/07/14 06:22:46;;;;;;;20.48;17.02;;;;;;;21.40;100.00;100031.03;4973686;28;20215;-80
2021/07/14 06:25:12;;;;;;;21.88;18.58;;;;;;;21.52;100.00;100030.94;4987081;28;20190;-81
2021/07/14 06:27:40;;;;;;;20.25;18.20;;;;;;;21.42;100.00;100020.41;4966754;28;20190;-80
2021/07/14 06:30:09;;;;;;;18.88;17.00;;;;;;;21.39;100.00;100018.34;4980032;28;20181;-80
2021/07/14 06:32:40;;;;;;;19.23;17.27;;;;;;;21.37;100.00;100004.09;4973155;28;20178;-80
2021/07/14 06:35:07;;;;;;;19.35;17.35;;;;;;;21.48;100.00;100010.69;4983499;28;20193;-80
2021/07/14 06:37:33;;;;;;;18.70;16.55;;;;;;;21.52;100.00;100028.16;4971184;28;20226;-80
2021/07/14 06:40:01;;;;;;;19.27;16.63;;;;;;;21.80;100.00;100023.28;4966235;28;20173;-80
2021/07/14 06:42:29;;;;;;;19.20;17.00;;;;;;;21.88;100.00;100019.50;4943155;28;20264;-79
2021/07/14 06:44:55;;;;;;;17.30;15.68;;;;;;;22.00;100.00;100023.75;4983590;28;20194;-80
2021/07/14 06:47:23;;;;;;;16.02;14.40;;;;;;;21.96;100.00;100026.78;4949951;28;20230;-81
2021/07/14 06:49:48;;;;;;;17.08;15.32;;;;;;;22.12;100.00;100031.09;4985247;28;20242;-81
2021/07/14 06:52:16;;;;;;;17.60;15.73;;;;;;;22.26;100.00;100039.75;5022885;28;20225;-79
2021/07/14 06:54:47;;;;;;;17.48;15.02;;;;;;;22.25;100.00;100040.91;4999103;28;20212;-81
2021/07/14 06:57:15;;;;;;;15.43;13.93;;;;;;;22.26;100.00;100043.31;4954890;28;20228;-80
2021/07/14 06:59:41;;;;;;;13.57;12.35;;;;;;;22.29;100.00;100041.78;5009983;28;20268;-80
2021/07/14 07:02:07;;;;;;;13.55;12.23;;;;;;;22.20;100.00;100049.50;4989010;28;20225;-79
2021/07/14 07:04:33;;;;;;;16.10;14.00;;;;;;;22.09;100.00;100038.19;4998431;28;20551;-79
2021/07/14 07:07:00;;;;;;;15.55;13.95;;;;;;;21.82;100.00;100043.09;4950571;28;20226;-79
2021/07/14 07:09:26;;;;;;;16.10;14.52;;;;;;;21.67;100.00;100046.69;4957986;28;20189;-78
2021/07/14 07:11:52;;;;;;;17.38;15.57;;;;;;;21.83;100.00;100039.97;4962709;28;20231;-80
2021/07/14 07:14:20;;;;;;;17.23;15.55;;;;;;;21.88;100.00;100052.69;4954233;28;20181;-79
2021/07/14 07:16:48;;;;;;;17.77;15.70;;;;;;;21.86;100.00;100049.50;4954581;28;20260;-78
2021/07/14 07:19:16;;;;;;;16.83;15.13;;;;;;;21.66;100.00;100050.59;4971268;28;20276;-80
2021/07/14 07:21:47;;;;;;;18.48;16.42;;;;;;;21.86;100.00;100055.81;4989971;28;20240;-80
2021/07/14 07:24:16;;;;;;;19.40;17.10;;;;;;;21.75;100.00;100042.91;5008036;28;20192;-80
2021/07/14 07:26:44;;;;;;;18.88;16.98;;;;;;;21.72;100.00;100060.22;4966604;28;20217;-79
2021/07/14 07:29:13;;;;;;;19.00;17.15;;;;;;;21.80;100.00;100050.94;4935549;28;20190;-81
2021/07/14 07:31:41;;;;;;;18.05;16.10;;;;;;;21.94;100.00;100054.00;4972948;28;20225;-80
2021/07/14 07:34:12;;;;;;;18.67;16.77;;;;;;;21.92;100.00;100048.03;4993448;28;20275;-81
2021/07/14 07:36:40;;;;;;;19.83;17.67;;;;;;;21.86;100.00;100049.50;4993224;28;20218;-80
2021/07/14 07:39:06;;;;;;;19.17;17.05;;;;;;;21.96;100.00;100048.91;4970988;28;20201;-80
2021/07/14 07:41:34;;;;;;;19.38;17.15;;;;;;;22.12;100.00;100051.28;4981735;28;20249;-80
2021/07/14 07:44:05;;;;;;;18.70;16.90;;;;;;;22.01;100.00;100058.56;4994422;28;20200;-81
2021/07/14 07:46:30;;;;;;;18.45;16.73;;;;;;;22.09;100.00;100054.78;4974523;28;20282;-80
2021/07/14 07:49:01;;;;;;;20.52;18.40;;;;;;;22.21;100.00;100054.66;4942821;28;20192;-80
2021/07/14 07:51:27;;;;;;;18.00;16.30;;;;;;;22.33;100.00;100046.22;5017875;28;20228;-80
2021/07/14 07:53:53;;;;;;;19.58;17.52;;;;;;;22.38;100.00;100057.03;4996227;28;20181;-79
2021/07/14 07:56:19;;;;;;;19.70;17.80;;;;;;;22.03;100.00;100045.16;5003626;28;20225;-79
2021/07/14 07:58:45;;;;;;;18.50;16.55;;;;;;;22.39;100.00;100048.31;4955853;28;20247;-80
2021/07/14 08:01:13;;;;;;;18.17;16.30;;;;;;;22.50;100.00;100048.56;4981775;28;20225;-79
2021/07/14 08:03:43;;;;;;;18.95;17.05;;;;;;;22.61;100.00;100046.78;5006691;28;20266;-79
2021/07/14 08:06:09;;;;;;;18.02;16.23;;;;;;;22.25;100.00;100041.72;4978176;28;20233;-80
2021/07/14 08:08:35;;;;;;;18.58;16.60;;;;;;;22.31;100.00;100040.25;4967445;28;20681;-79
2021/07/14 08:11:01;;;;;;;19.35;17.38;;;;;;;22.53;100.00;100042.31;4975798;28;20226;-79
2021/07/14 08:13:29;;;;;;;18.63;16.83;;;;;;;22.57;100.00;100043.16;4953135;28;20569;-79
2021/07/14 08:15:59;;;;;;;20.17;18.27;;;;;;;22.55;100.00;100037.19;4967647;28;20690;-79
2021/07/14 08:18:25;;;;;;;20.30;18.50;;;;;;;22.47;100.00;100043.72;4966593;28;20186;-81
2021/07/14 08:20:51;;;;;;;21.10;19.13;;;;;;;22.35;100.00;100046.66;4977075;28;20275;-80
2021/07/14 08:23:22;;;;;;;22.40;20.20;;;;;;;22.23;100.00;100041.25;4973516;28;20185;-80
2021/07/14 08:25:48;;;;;;;22.48;20.27;;;;;;;22.26;100.00;100037.78;4981146;28;20218;-80
2021/07/14 08:28:16;;;;;;;23.33;20.92;;;;;;;22.48;100.00;100046.16;4934810;28;20221;-81
2021/07/14 08:30:44;;;;;;;21.75;19.73;;;;;;;22.31;100.00;100045.81;4961555;28;20324;-79
2021/07/14 08:33:12;;;;;;;23.58;21.35;;;;;;;22.40;100.00;100051.91;4975449;28;20718;-78
2021/07/14 08:35:40;;;;;;;24.52;21.77;;;;;;;22.42;100.00;100055.91;4971107;28;20231;-80
2021/07/14 08:38:09;;;;;;;22.50;20.40;;;;;;;22.21;100.00;100051.88;4952372;28;20187;-80
2021/07/14 08:40:36;;;;;;;24.17;21.25;;;;;;;22.18;100.00;100055.41;4952503;28;20291;-80
2021/07/14 08:43:03;;;;;;;22.98;20.77;;;;;;;22.37;100.00;100052.63;4960723;28;20198;-78
2021/07/14 08:45:29;;;;;;;23.92;21.52;;;;;;;22.17;100.00;100058.53;4967221;28;20230;-80
2021/07/14 08:47:55;;;;;;;26.52;21.85;;;;;;;22.42;100.00;100066.19;4972574;28;20197;-80
2021/07/14 08:50:21;;;;;;;23.63;21.38;;;;;;;22.48;100.00;100067.50;5023537;28;20173;-80
2021/07/14 08:52:48;;;;;;;24.48;21.88;;;;;;;22.46;100.00;100075.38;4954744;28;20186;-80
2021/07/14 08:55:18;;;;;;;25.58;22.98;;;;;;;22.23;100.00;100071.69;4967178;28;20190;-80
2021/07/14 08:57:46;;;;;;;26.80;23.95;;;;;;;22.35;100.00;100074.34;4983371;28;20204;-79
2021/07/14 09:00:19;;;;;;;24.48;22.15;;;;;;;22.12;100.00;100070.66;4990156;28;20207;-80
2021/07/14 09:02:50;;;;;;;26.27;23.77;;;;;;;22.26;100.00;100065.44;5006850;28;20290;-79
2021/07/14 09:05:18;;;;;;;26.08;23.45;;;;;;;22.12;100.00;100064.31;4970343;28;20212;-79
2021/07/14 09:07:46;;;;;;;25.90;23.30;;;;;;;22.29;100.00;100069.44;4986382;28;20177;-79
2021/07/14 09:10:15;;;;;;;25.25;22.75;;;;;;;22.33;100.00;100065.59;4973907;28;20261;-80
2021/07/14 09:12:45;;;;;;;25.70;23.00;;;;;;;22.40;100.00;100058.25;4991748;28;20237;-80
2021/07/14 09:15:15;;;;;;;25.38;22.67;;;;;;;22.36;100.00;100059.31;4987052;28;20185;-79
2021/07/14 09:17:50;;;;;;;25.15;22.55;;;;;;;22.27;100.00;100053.22;4954570;28;20182;-82
2021/07/14 09:20:32;;;;;;;25.73;23.00;;;;;;;22.41;100.00;100054.31;4983332;28;20169;-81
2021/07/14 09:23:05;;;;;;;25.27;22.70;;;;;;;22.62;100.00;100040.06;4999262;28;20240;-80
2021/07/14 09:25:41;;;;;;;23.05;20.65;;;;;;;22.61;100.00;100032.94;5003600;28;20205;-81
2021/07/14 09:28:09;;;;;;;23.75;21.55;;;;;;;22.73;100.00;100041.09;5001187;28;20174;-81
2021/07/14 09:30:40;;;;;;;23.33;21.02;;;;;;;22.80;100.00;100039.25;4963737;28;20238;-81
2021/07/14 09:33:07;;;;;;;24.05;21.58;;;;;;;22.85;100.00;100038.94;4963237;28;20201;-82
2021/07/14 09:35:47;;;;;;;22.35;20.25;;;;;;;23.04;100.00;100055.56;4947441;28;20222;-81
2021/07/14 09:38:15;;;;;;;21.67;19.48;;;;;;;23.17;100.00;100043.13;4974329;28;20244;-80
2021/07/14 09:40:42;;;;;;;20.15;18.30;;;;;;;23.17;100.00;100041.16;4974078;28;20229;-81
2021/07/14 09:43:13;;;;;;;20.63;18.63;;;;;;;23.32;100.00;100045.78;4944284;28;20293;-77
2021/07/14 09:45:54;;;;;;;18.75;16.88;;;;;;;23.45;100.00;100047.19;4966960;28;20222;-79
2021/07/14 09:48:23;;;;;;;19.08;17.27;;;;;;;23.56;100.00;100042.63;4965390;28;20208;-81
2021/07/14 09:50:57;;;;;;;18.88;17.02;;;;;;;23.47;100.00;100039.28;5004711;28;20221;-80
2021/07/14 09:53:29;;;;;;;18.58;16.75;;;;;;;23.66;100.00;100046.38;4987986;28;20221;-80
2021/07/14 09:56:01;;;;;;;17.50;15.95;;;;;;;23.60;100.00;100047.84;4967683;28;20218;-79
2021/07/14 09:58:31;;;;;;;17.17;15.55;;;;;;;23.73;100.00;100032.59;4978949;28;20211;-79
2021/07/14 10:01:05;;;;;;;16.70;15.20;;;;;;;23.51;100.00;100037.38;4988080;28;20225;-79
2021/07/14 10:03:37;;;;;;;16.02;14.50;;;;;;;23.59;100.00;100037.94;4975299;28;20194;-80
2021/07/14 10:06:12;;;;;;;16.90;15.23;;;;;;;23.20;100.00;100034.88;4955234;28;20251;-80
2021/07/14 10:08:44;;;;;;;17.42;15.82;;;;;;;23.20;100.00;100029.31;4996234;28;20199;-78
2021/07/14 10:11:18;;;;;;;17.65;16.02;;;;;;;23.21;100.00;100039.25;4968054;28;20218;-78
2021/07/14 10:13:58;;;;;;;17.55;15.95;;;;;;;23.33;100.00;100023.25;5006251;28;20186;-78
2021/07/14 10:16:28;;;;;;;17.10;15.52;;;;;;;23.25;100.00;100027.03;4957126;28;20704;-78
2021/07/14 10:19:04;;;;;;;17.65;15.95;;;;;;;23.06;100.00;100031.88;4986606;28;20184;-77
2021/07/14 10:21:30;;;;;;;18.90;17.00;;;;;;;23.29;100.00;100032.66;4976201;28;20233;-78
2021/07/14 10:24:00;;;;;;;19.00;17.00;;;;;;;23.16;100.00;100025.69;4975083;28;20179;-79
2021/07/14 10:26:28;;;;;;;19.60;17.73;;;;;;;23.33;100.00;100023.25;4969737;28;20226;-80
2021/07/14 10:28:56;;;;;;;20.02;18.10;;;;;;;23.09;100.00;100027.53;4997070;28;20213;-80
2021/07/14 10:31:25;;;;;;;21.05;19.13;;;;;;;23.15;100.00;100018.56;4992744;28;20330;-80
2021/07/14 10:33:53;;;;;;;21.35;19.27;;;;;;;23.19;100.00;100039.63;4985438;28;20202;-79
2021/07/14 10:36:23;;;;;;;20.45;18.55;;;;;;;23.16;100.00;100047.09;4965398;28;20236;-79
2021/07/14 10:38:51;;;;;;;21.30;19.20;;;;;;;23.10;100.00;100043.81;4989142;28;20240;-78
2021/07/14 10:41:17;;;;;;;21.40;19.50;;;;;;;23.12;100.00;100043.44;4962977;28;20223;-80
2021/07/14 10:43:49;;;;;;;19.92;18.02;;;;;;;23.01;100.00;100046.03;4977106;28;20185;-79
2021/07/14 10:46:19;;;;;;;21.98;19.48;;;;;;;23.16;100.00;100049.84;4987110;28;20225;-79
2021/07/14 10:48:45;;;;;;;21.05;19.15;;;;;;;23.23;100.00;100050.78;4993054;28;20252;-78
2021/07/14 10:51:10;;;;;;;22.23;20.08;;;;;;;23.22;100.00;100051.94;4985153;28;20737;-79
2021/07/14 10:53:37;;;;;;;20.30;18.30;;;;;;;22.97;100.00;100053.47;4974816;28;20671;-77
2021/07/14 10:56:03;;;;;;;21.23;19.13;;;;;;;23.33;100.00;100048.19;4925097;28;20217;-77
2021/07/14 10:58:29;;;;;;;20.98;18.98;;;;;;;23.46;100.00;100049.59;4952264;28;20189;-76
2021/07/14 11:00:55;;;;;;;21.63;19.52;;;;;;;23.78;100.00;100051.72;4962843;28;20228;-77
2021/07/14 11:03:41;;;;;;;20.70;18.88;;;;;;;24.06;100.00;100041.81;4988322;28;20191;-76
2021/07/14 11:06:08;;;;;;;19.30;17.63;;;;;;;24.22;100.00;100047.19;4941349;28;20250;-79
2021/07/14 11:08:43;;;;;;;20.45;18.45;;;;;;;24.38;100.00;100040.28;4958573;28;20197;-79
2021/07/14 11:11:14;;;;;;;18.40;16.73;;;;;;;24.32;100.00;100043.75;4978617;28;20249;-79
2021/07/14 11:13:48;;;;;;;17.40;15.80;;;;;;;24.80;100.00;100038.81;4961946;28;20189;-78
2021/07/14 11:16:48;;;;;;;17.40;15.60;;;;;;;25.01;100.00;100039.06;4944097;28;20213;-78